Airfield :
LOGIN :

Register | Disclaimer

   EN    FR    IT 

 










Legend :    VFR   Marginal VFR   IFR   Intensive IFR   Very Intensive IFR
Visi :
Ceiling :
>= 8 km
>= 3000ft
5 to 8 km
1000 to 3000 ft
1500m to 5 km
500 to 1000 ft
800 to 1500m
200 to 500 ft
< 800m
< 200 ft
Symbols :   Thunderstorms  Fog  Heavy snow  Heavy precipitations  Wind > 20 kt
SIGMETs :     Misc.  Thunderstorms  Icing  Turbulence  Mountain Waves  Volcanic Ashes







- Airport Elevation : 1416 ft
- IATA code : ZRH


LSZH - Zurich

CURRENT METAR :
  • 222350Z 00000KT CAVOK 05/02 Q1015 NOSIG

EXPIRED METARs :
  • 222320Z 17004KT CAVOK 06/03 Q1015 NOSIG
  • 222250Z 14003KT 120V190 CAVOK 06/03 Q1016 NOSIG
  • 222220Z VRB02KT CAVOK 07/03 Q1016 NOSIG
  • 222150Z 28004KT 9999 SCT065 BKN160 07/04 Q1016 NOSIG
  • 222120Z 30006KT 9999 BKN065 07/04 Q1016 NOSIG

TAF TAF LSZH
Valid from the 23 at 00:00 until the 24 at 06:00 UTC


222325Z 2300/2406 VRB03KT CAVOK TX17/2314Z TN04/2306Z TN05/2406Z
PROB40 2302/2307 4500 BR BKN010
BECMG 2310/2313 21012G25KT
TEMPO 2314/2405 24018G35KT
BECMG 2317/2320 9999 SCT040 BKN080
TEMPO 2321/2403 4000 SHRA BKN020
PROB30
TEMPO 2321/2403 28025G40KT
ATIS : +41 43 816 2295 (DEP) +41 43 816 2294 (ARR)
No reported NOTAMs for that airfield.



MET'MAP, your aeronautical weather chart ! - Copyright ORBIFLY December 2007 - Disclaimer

ORBIFLY MET'MAP TEAM :

Programming & Development : Alexandra Zaïnal
Concept & Development : Baudouin d'Aumeries
Co-Development & Prog : Marc-Olivier Méhu
Technical & hardware support : Manuel Goepfert

Contact : metmap@orbifly.com




SOURCES & CREDITS :

   NOAA